createdAt,value
2024-02-07T00:00:56.373Z,42.21
2024-02-07T00:02:02.666Z,42.2
2024-02-07T00:03:08.590Z,42.23
2024-02-07T00:04:14.816Z,42.24
2024-02-07T00:05:20.749Z,42.24
2024-02-07T00:06:26.957Z,42.23
2024-02-07T00:07:33.006Z,42.23
2024-02-07T00:08:39.101Z,42.23
2024-02-07T00:09:45.141Z,42.24
2024-02-07T00:10:51.312Z,42.25
2024-02-07T00:11:57.362Z,42.26
2024-02-07T00:13:03.434Z,42.25
2024-02-07T00:14:09.512Z,42.23
2024-02-07T00:15:15.633Z,42.24
2024-02-07T00:16:21.703Z,42.26
2024-02-07T00:17:27.825Z,42.25
2024-02-07T00:18:34.025Z,42.25
2024-02-07T00:20:46.078Z,42.24
2024-02-07T00:21:52.234Z,42.25
2024-02-07T00:22:58.315Z,42.24
2024-02-07T00:24:04.372Z,42.24
2024-02-07T00:25:10.536Z,42.24
2024-02-07T00:26:16.531Z,42.24
2024-02-07T00:27:22.641Z,42.26
2024-02-07T00:28:28.802Z,42.26
2024-02-07T00:29:34.743Z,42.26
2024-02-07T00:30:41.139Z,42.25
2024-02-07T00:31:47.111Z,42.22
2024-02-07T00:32:53.169Z,42.24
2024-02-07T00:33:59.226Z,42.26
2024-02-07T00:35:05.368Z,42.28
2024-02-07T00:36:11.397Z,42.26
2024-02-07T00:37:17.527Z,42.26
2024-02-07T00:38:23.633Z,42.27
2024-02-07T00:39:29.708Z,42.28
2024-02-07T00:40:35.776Z,42.28
2024-02-07T00:41:41.882Z,42.27
2024-02-07T00:42:47.985Z,42.27
2024-02-07T00:43:54.401Z,42.17
2024-02-07T00:45:00.143Z,42.28
2024-02-07T00:46:06.350Z,42.28
2024-02-07T00:47:12.341Z,42.27
2024-02-07T00:48:18.431Z,42.28
2024-02-07T00:49:24.665Z,42.27
2024-02-07T00:50:30.726Z,42.27
2024-02-07T00:51:36.727Z,42.28
2024-02-07T00:52:42.935Z,42.27
2024-02-07T00:53:48.922Z,42.28
2024-02-07T00:54:55.017Z,42.28
2024-02-07T00:56:01.173Z,42.29
2024-02-07T00:57:07.208Z,42.32
2024-02-07T00:58:13.350Z,42.32
2024-02-07T00:59:19.401Z,42.32
2024-02-07T01:00:25.713Z,42.28
2024-02-07T01:01:31.594Z,42.29
2024-02-07T01:02:37.706Z,42.29
2024-02-07T01:03:43.879Z,42.3
2024-02-07T01:04:50.035Z,42.29
2024-02-07T01:05:56.493Z,42.29
2024-02-07T01:07:02.169Z,42.29
2024-02-07T01:08:14.395Z,42.29
2024-02-07T01:09:20.428Z,42.3
2024-02-07T01:10:26.444Z,42.32
2024-02-07T01:11:32.607Z,42.3
2024-02-07T01:12:38.719Z,42.3
2024-02-07T01:13:44.838Z,42.28
2024-02-07T01:14:50.904Z,42.29
2024-02-07T01:15:56.983Z,42.25
2024-02-07T01:17:03.064Z,42.32
2024-02-07T01:18:09.289Z,42.33
2024-02-07T01:19:15.439Z,42.35
2024-02-07T01:20:21.499Z,42.33
2024-02-07T01:21:27.513Z,42.32
2024-02-07T01:22:33.569Z,42.32
2024-02-07T01:23:39.668Z,42.29
2024-02-07T01:24:45.663Z,42.32
2024-02-07T01:25:51.920Z,42.34
2024-02-07T01:26:57.937Z,42.34
2024-02-07T01:28:04.057Z,42.36
2024-02-07T01:29:10.137Z,42.36
2024-02-07T01:30:16.125Z,42.34
2024-02-07T01:31:22.289Z,42.36
2024-02-07T01:32:28.409Z,42.35
2024-02-07T01:33:34.603Z,42.35
2024-02-07T01:34:40.619Z,42.36
2024-02-07T01:35:46.678Z,42.37
2024-02-07T01:36:52.769Z,42.36
2024-02-07T01:37:58.919Z,42.35
2024-02-07T01:39:04.992Z,42.33
2024-02-07T01:40:11.088Z,42.33
2024-02-07T01:41:17.153Z,42.34
2024-02-07T01:42:23.240Z,42.35
2024-02-07T01:43:29.428Z,42.37
2024-02-07T01:44:35.436Z,42.38
2024-02-07T01:45:41.520Z,42.36
2024-02-07T01:46:47.714Z,42.36
2024-02-07T01:47:53.974Z,42.32
2024-02-07T01:48:59.928Z,42.35
2024-02-07T01:50:05.971Z,42.36
2024-02-07T01:51:12.026Z,42.37
2024-02-07T01:52:18.173Z,42.36
2024-02-07T01:53:24.235Z,42.34
2024-02-07T01:54:30.281Z,42.36
2024-02-07T01:55:36.441Z,42.41
2024-02-07T01:56:42.508Z,42.36
2024-02-07T01:57:48.643Z,42.38
2024-02-07T01:58:54.747Z,42.37
2024-02-07T02:00:00.801Z,42.35
2024-02-07T02:01:06.989Z,42.34
2024-02-07T02:02:13.076Z,42.36
2024-02-07T02:03:19.072Z,42.48
2024-02-07T02:04:25.172Z,42.39
2024-02-07T02:05:31.258Z,42.38
2024-02-07T02:06:37.368Z,42.37
2024-02-07T02:07:43.496Z,42.37
2024-02-07T02:08:49.551Z,42.37
2024-02-07T02:09:55.605Z,42.38
2024-02-07T02:11:01.761Z,42.35
2024-02-07T02:12:07.872Z,42.36
2024-02-07T02:13:13.952Z,42.36
2024-02-07T02:14:19.975Z,42.35
2024-02-07T02:15:26.080Z,42.36
2024-02-07T02:16:32.216Z,42.35
2024-02-07T02:17:38.384Z,42.35
2024-02-07T02:18:44.366Z,42.34
2024-02-07T02:19:50.568Z,42.34
2024-02-07T02:20:56.621Z,42.32
2024-02-07T02:22:02.704Z,42.33
2024-02-07T02:23:08.766Z,42.34
2024-02-07T02:24:14.846Z,42.35
2024-02-07T02:25:20.937Z,42.36
2024-02-07T02:26:27.032Z,42.35
2024-02-07T02:27:33.178Z,42.33
2024-02-07T02:28:39.234Z,42.34
2024-02-07T02:29:45.369Z,42.34
2024-02-07T02:30:51.431Z,42.35
2024-02-07T02:31:57.709Z,42.35
2024-02-07T02:33:03.616Z,42.34
2024-02-07T02:34:09.792Z,42.33
2024-02-07T02:35:15.816Z,42.33
2024-02-07T02:36:21.808Z,42.33
2024-02-07T02:37:28.052Z,42.32
2024-02-07T02:38:34.118Z,42.34
2024-02-07T02:39:40.247Z,42.31
2024-02-07T02:40:46.300Z,42.3
2024-02-07T02:41:52.356Z,42.29
2024-02-07T02:42:58.469Z,42.22
2024-02-07T02:44:04.636Z,42.3
2024-02-07T02:45:10.674Z,42.3
2024-02-07T02:46:16.783Z,42.29
2024-02-07T02:47:22.869Z,42.29
2024-02-07T02:48:29.062Z,42.28
2024-02-07T02:49:35.164Z,42.3
2024-02-07T02:50:41.155Z,42.3
2024-02-07T02:51:47.236Z,42.3
2024-02-07T02:52:53.365Z,42.3
2024-02-07T02:53:59.387Z,42.31
2024-02-07T02:55:05.529Z,42.31
2024-02-07T02:56:11.698Z,42.29
2024-02-07T02:57:17.710Z,42.3
2024-02-07T02:58:32.807Z,42.2
2024-02-07T02:59:29.931Z,42.29
2024-02-07T03:00:36.088Z,42.28
2024-02-07T03:01:42.142Z,42.28
2024-02-07T03:02:48.165Z,42.28
2024-02-07T03:03:54.612Z,42.26
2024-02-07T03:05:00.481Z,42.26
2024-02-07T03:06:06.598Z,42.25
2024-02-07T03:07:12.622Z,42.28
2024-02-07T03:08:18.644Z,42.26
2024-02-07T03:09:24.781Z,42.26
2024-02-07T03:10:30.858Z,42.25
2024-02-07T03:11:36.966Z,42.26
2024-02-07T03:12:43.059Z,42.26
2024-02-07T03:13:49.187Z,42.25
2024-02-07T03:14:55.197Z,42.22
2024-02-07T03:16:01.307Z,42.23
2024-02-07T03:17:07.323Z,42.23
2024-02-07T03:18:13.794Z,42.23
2024-02-07T03:19:19.662Z,42.23
2024-02-07T03:20:25.718Z,42.25
2024-02-07T03:21:31.844Z,42.23
2024-02-07T03:22:37.952Z,42.25
2024-02-07T03:23:43.981Z,42.25
2024-02-07T03:24:50.104Z,42.23
2024-02-07T03:25:56.234Z,42.25
2024-02-07T03:27:02.256Z,42.23
2024-02-07T03:28:08.368Z,42.23
2024-02-07T03:29:14.441Z,42.25
2024-02-07T03:30:20.550Z,42.22
2024-02-07T03:31:26.643Z,42.22
2024-02-07T03:32:32.816Z,42.21
2024-02-07T03:34:44.956Z,42.19
2024-02-07T03:35:51.056Z,42.2
2024-02-07T03:36:57.122Z,42.21
2024-02-07T03:38:03.279Z,42.18
2024-02-07T03:39:09.308Z,42.18
2024-02-07T03:40:16.055Z,42.17
2024-02-07T03:41:21.498Z,42.18
2024-02-07T03:42:27.522Z,42.18
2024-02-07T03:43:33.749Z,42.19
2024-02-07T03:44:39.820Z,42.18
2024-02-07T03:45:45.877Z,42.2
2024-02-07T03:46:52.073Z,42.16
2024-02-07T03:47:58.116Z,42.15
2024-02-07T03:49:04.242Z,42.15
2024-02-07T03:50:10.319Z,42.15
2024-02-07T03:51:16.372Z,42.16
2024-02-07T03:52:22.387Z,42.19
2024-02-07T03:53:28.574Z,42.14
2024-02-07T03:54:34.633Z,42.14
2024-02-07T03:55:40.794Z,42.14
2024-02-07T03:57:53.090Z,42.15
2024-02-07T03:58:59.455Z,42.15
2024-02-07T04:00:05.136Z,42.15
2024-02-07T04:01:11.368Z,42.13
2024-02-07T04:02:17.384Z,42.12
2024-02-07T04:04:29.587Z,42.13
2024-02-07T04:05:35.685Z,42.14
2024-02-07T04:06:41.820Z,42.14
2024-02-07T04:07:48.007Z,42.11
2024-02-07T04:08:54.032Z,42.1
2024-02-07T04:09:59.994Z,42.04
2024-02-07T04:11:06.060Z,42.11
2024-02-07T04:12:12.164Z,42.11
2024-02-07T04:13:18.208Z,42.12
2024-02-07T04:14:24.343Z,42.08
2024-02-07T04:15:30.474Z,42.1
2024-02-07T04:16:36.611Z,42.11
2024-02-07T04:17:42.668Z,42.11
2024-02-07T04:18:48.766Z,42.11
2024-02-07T04:19:54.914Z,42.12
2024-02-07T04:21:00.922Z,42.12
2024-02-07T04:22:07.049Z,42.07
2024-02-07T04:23:13.157Z,42.06
2024-02-07T04:24:19.198Z,42.06
2024-02-07T04:25:25.343Z,42.11
2024-02-07T04:26:31.426Z,42.09
2024-02-07T04:27:37.508Z,42.08
2024-02-07T04:28:43.544Z,42.06
2024-02-07T04:29:49.684Z,42.06
2024-02-07T04:30:55.799Z,42.07
2024-02-07T04:32:01.916Z,42.09
2024-02-07T04:33:08.195Z,41.98
2024-02-07T04:34:14.173Z,42.08
2024-02-07T04:35:20.156Z,42.06
2024-02-07T04:36:26.242Z,42.06
2024-02-07T04:37:32.396Z,42.05
2024-02-07T04:38:42.070Z,42.05
2024-02-07T04:39:44.442Z,42.05
2024-02-07T04:40:50.802Z,42.06
2024-02-07T04:41:56.720Z,42.05
2024-02-07T04:43:02.863Z,42.04
2024-02-07T04:44:08.840Z,42.04
2024-02-07T04:45:15.021Z,42.05
2024-02-07T04:46:21.148Z,42.04
2024-02-07T04:47:27.236Z,42.06
2024-02-07T04:48:39.465Z,42.05
2024-02-07T04:49:45.646Z,42.03
2024-02-07T04:50:51.635Z,42.01
2024-02-07T04:51:57.659Z,41.99
2024-02-07T04:53:03.918Z,42.01
2024-02-07T04:54:12.382Z,42.03
2024-02-07T04:55:16.061Z,42.03
2024-02-07T04:56:22.100Z,42
2024-02-07T04:57:28.196Z,42
2024-02-07T04:58:34.386Z,41.99
2024-02-07T04:59:40.430Z,42
2024-02-07T05:00:46.521Z,42
2024-02-07T05:01:52.666Z,41.99
2024-02-07T05:02:58.685Z,41.98
2024-02-07T05:04:04.786Z,41.97
2024-02-07T05:05:10.848Z,41.95
2024-02-07T05:06:17.167Z,41.94
2024-02-07T05:07:23.107Z,41.97
2024-02-07T05:08:29.126Z,41.96
2024-02-07T05:09:35.257Z,41.96
2024-02-07T05:10:41.380Z,41.91
2024-02-07T05:11:47.422Z,41.9
2024-02-07T05:12:53.548Z,41.88
2024-02-07T05:13:59.731Z,41.92
2024-02-07T05:15:05.729Z,41.92
2024-02-07T05:16:11.899Z,41.91
2024-02-07T05:17:17.930Z,41.92
2024-02-07T05:18:24.146Z,41.91
2024-02-07T05:19:30.135Z,41.9
2024-02-07T05:20:36.220Z,41.9
2024-02-07T05:21:42.277Z,41.9
2024-02-07T05:22:48.461Z,41.89
2024-02-07T05:23:54.492Z,41.91
2024-02-07T05:25:00.600Z,41.92
2024-02-07T05:26:06.663Z,41.93
2024-02-07T05:27:12.792Z,41.9
2024-02-07T05:28:19.005Z,41.89
2024-02-07T05:29:24.956Z,41.83
2024-02-07T05:30:31.103Z,41.88
2024-02-07T05:31:37.243Z,41.88
2024-02-07T05:32:43.313Z,41.89
2024-02-07T05:33:49.486Z,41.86
2024-02-07T05:34:55.496Z,41.86
2024-02-07T05:36:01.578Z,41.85
2024-02-07T05:37:07.655Z,41.85
2024-02-07T05:38:13.643Z,41.86
2024-02-07T05:39:19.799Z,41.86
2024-02-07T05:40:25.928Z,41.85
2024-02-07T05:41:32.016Z,41.83
2024-02-07T05:42:38.114Z,41.84
2024-02-07T05:43:44.185Z,41.83
2024-02-07T05:44:50.292Z,41.77
2024-02-07T05:45:56.364Z,41.83
2024-02-07T05:47:02.574Z,41.82
2024-02-07T05:48:08.611Z,41.81
2024-02-07T05:49:14.776Z,41.8
2024-02-07T05:50:20.752Z,41.8
2024-02-07T05:51:26.829Z,41.81
2024-02-07T05:52:32.984Z,41.81
2024-02-07T05:53:38.959Z,41.81
2024-02-07T05:54:45.109Z,41.78
2024-02-07T05:55:51.292Z,41.78
2024-02-07T05:56:57.331Z,41.79
2024-02-07T05:58:03.327Z,41.78
2024-02-07T05:59:09.540Z,41.79
2024-02-07T06:00:15.652Z,41.79
2024-02-07T06:01:21.823Z,41.79
2024-02-07T06:02:27.850Z,41.78
2024-02-07T06:03:33.912Z,41.77
2024-02-07T06:04:40.077Z,41.77
2024-02-07T06:05:46.078Z,41.78
2024-02-07T06:06:52.230Z,41.76
2024-02-07T06:07:58.386Z,41.76
2024-02-07T06:09:04.363Z,41.74
2024-02-07T06:10:10.575Z,41.73
2024-02-07T06:11:16.591Z,41.72
2024-02-07T06:12:22.658Z,41.72
2024-02-07T06:13:28.809Z,41.73
2024-02-07T06:14:34.840Z,41.74
2024-02-07T06:15:40.938Z,41.73
2024-02-07T06:16:47.093Z,41.7
2024-02-07T06:17:53.650Z,41.69
2024-02-07T06:18:59.216Z,41.68
2024-02-07T06:20:05.461Z,41.66
2024-02-07T06:21:11.477Z,41.66
2024-02-07T06:22:17.549Z,41.67
2024-02-07T06:23:23.621Z,41.67
2024-02-07T06:24:29.628Z,41.67
2024-02-07T06:25:35.821Z,41.66
2024-02-07T06:26:41.935Z,41.64
2024-02-07T06:27:47.976Z,41.63
2024-02-07T06:28:54.151Z,41.64
2024-02-07T06:30:00.344Z,41.62
2024-02-07T06:31:06.260Z,41.6
2024-02-07T06:32:12.332Z,41.6
2024-02-07T06:33:18.606Z,41.59
2024-02-07T06:34:24.520Z,41.58
2024-02-07T06:35:30.711Z,41.57
2024-02-07T06:36:36.728Z,41.57
2024-02-07T06:37:42.884Z,41.57
2024-02-07T06:38:48.911Z,41.57
2024-02-07T06:39:55.007Z,41.56
2024-02-07T06:41:01.185Z,41.56
2024-02-07T06:42:07.216Z,41.55
2024-02-07T06:43:13.384Z,41.55
2024-02-07T06:44:19.390Z,41.53
2024-02-07T06:45:25.532Z,41.53
2024-02-07T06:46:31.633Z,41.53
2024-02-07T06:47:37.777Z,41.53
2024-02-07T06:48:43.841Z,41.5
2024-02-07T06:49:49.822Z,41.5
2024-02-07T06:50:55.964Z,41.48
2024-02-07T06:52:02.094Z,41.47
2024-02-07T06:53:10.044Z,41.48
2024-02-07T06:54:14.244Z,41.5
2024-02-07T06:55:20.447Z,41.52
2024-02-07T06:56:26.463Z,41.51
2024-02-07T06:57:32.629Z,41.48
2024-02-07T06:58:38.743Z,41.47
2024-02-07T06:59:44.790Z,41.46
2024-02-07T07:00:50.858Z,41.45
2024-02-07T07:01:56.990Z,41.45
2024-02-07T07:03:03.071Z,41.45
2024-02-07T07:04:09.072Z,41.42
2024-02-07T07:05:15.109Z,41.46
2024-02-07T07:06:21.334Z,41.44
2024-02-07T07:07:27.436Z,41.43
2024-02-07T07:08:33.514Z,41.43
2024-02-07T07:09:39.515Z,41.44
2024-02-07T07:10:45.676Z,41.41
2024-02-07T07:11:51.777Z,41.43
2024-02-07T07:12:57.843Z,41.43
2024-02-07T07:14:04.145Z,41.44
2024-02-07T07:15:18.282Z,41.43
2024-02-07T07:16:16.228Z,41.41
2024-02-07T07:17:22.237Z,41.41
2024-02-07T07:18:28.369Z,41.42
2024-02-07T07:19:34.485Z,41.42
2024-02-07T07:20:40.515Z,41.42
2024-02-07T07:21:46.690Z,41.41
2024-02-07T07:22:58.971Z,41.42
2024-02-07T07:23:58.833Z,41.42
2024-02-07T07:25:04.893Z,41.42
2024-02-07T07:26:11.003Z,41.42
2024-02-07T07:27:17.104Z,41.44
2024-02-07T07:28:23.198Z,41.45
2024-02-07T07:29:29.277Z,41.45
2024-02-07T07:30:35.404Z,41.46
2024-02-07T07:31:41.448Z,41.47
2024-02-07T07:32:47.618Z,41.46
2024-02-07T07:33:53.654Z,41.44
2024-02-07T07:34:59.825Z,41.43
2024-02-07T07:36:05.822Z,41.43
2024-02-07T07:37:11.959Z,41.43
2024-02-07T07:38:18.058Z,41.43
2024-02-07T07:39:24.139Z,41.41
2024-02-07T07:40:30.164Z,41.43
2024-02-07T07:41:36.356Z,41.42
2024-02-07T07:42:42.426Z,41.42
2024-02-07T07:43:48.532Z,41.42
2024-02-07T07:44:54.597Z,41.41
2024-02-07T07:46:00.723Z,41.42
2024-02-07T07:47:06.783Z,41.42
2024-02-07T07:48:12.947Z,41.43
2024-02-07T07:49:19.377Z,41.43
2024-02-07T07:50:25.218Z,41.42
2024-02-07T07:51:31.165Z,41.33
2024-02-07T07:52:37.286Z,41.37
2024-02-07T07:53:43.355Z,41.39
2024-02-07T07:54:49.449Z,41.39
2024-02-07T07:55:55.617Z,41.36
2024-02-07T07:57:01.625Z,41.35
2024-02-07T07:58:07.733Z,41.34
2024-02-07T07:59:13.843Z,41.34
2024-02-07T08:00:19.926Z,41.35
2024-02-07T08:01:26.056Z,41.35
2024-02-07T08:02:32.149Z,41.34
2024-02-07T08:03:38.198Z,41.34
2024-02-07T08:04:44.383Z,41.33
2024-02-07T08:05:50.698Z,41.31
2024-02-07T08:06:56.543Z,41.32
2024-02-07T08:08:02.630Z,41.28
2024-02-07T08:09:08.749Z,41.32
2024-02-07T08:10:15.002Z,41.33
2024-02-07T08:11:20.938Z,41.32
2024-02-07T08:12:26.989Z,41.34
2024-02-07T08:13:33.086Z,41.29
2024-02-07T08:14:39.156Z,41.27
2024-02-07T08:15:45.449Z,41.26
2024-02-07T08:16:51.388Z,41.3
2024-02-07T08:17:57.467Z,41.32
2024-02-07T08:19:03.602Z,41.31
2024-02-07T08:20:09.694Z,41.3
2024-02-07T08:21:15.722Z,41.3
2024-02-07T08:22:21.869Z,41.3
2024-02-07T08:23:28.005Z,41.28
2024-02-07T08:24:34.005Z,41.28
2024-02-07T08:25:40.189Z,41.26
2024-02-07T08:26:49.800Z,41.25
2024-02-07T08:27:52.278Z,41.26
2024-02-07T08:29:04.671Z,41.29
2024-02-07T08:30:10.615Z,41.28
2024-02-07T08:31:16.784Z,41.28
2024-02-07T08:32:22.928Z,41.29
2024-02-07T08:33:29.093Z,41.3
2024-02-07T08:34:35.244Z,41.31
2024-02-07T08:35:41.121Z,41.31
2024-02-07T08:36:47.265Z,41.3
2024-02-07T08:37:53.323Z,41.29
2024-02-07T08:38:59.413Z,41.26
2024-02-07T08:40:05.521Z,41.28
2024-02-07T08:41:11.610Z,41.31
2024-02-07T08:42:17.698Z,41.32
2024-02-07T08:43:23.782Z,41.3
2024-02-07T08:44:31.005Z,41.29
2024-02-07T08:45:35.970Z,41.25
2024-02-07T08:46:42.080Z,41.24
2024-02-07T08:47:48.316Z,41.25
2024-02-07T08:48:54.305Z,41.26
2024-02-07T08:50:00.417Z,41.25
2024-02-07T08:51:06.344Z,41.26
2024-02-07T08:52:12.614Z,41.23
2024-02-07T08:53:21.396Z,41.22
2024-02-07T08:54:24.710Z,41.23
2024-02-07T08:55:31.045Z,41.25
2024-02-07T08:56:37.181Z,41.22
2024-02-07T08:57:43.018Z,41.24
2024-02-07T08:58:49.191Z,41.24
2024-02-07T08:59:55.188Z,41.24
2024-02-07T09:01:01.367Z,41.24
2024-02-07T09:02:07.459Z,41.23
2024-02-07T09:03:13.477Z,41.26
2024-02-07T09:04:19.634Z,41.24
2024-02-07T09:05:25.857Z,41.25
2024-02-07T09:06:31.971Z,41.24
2024-02-07T09:07:37.967Z,41.24
2024-02-07T09:08:43.968Z,41.23
2024-02-07T09:09:50.062Z,41.22
2024-02-07T09:10:56.192Z,41.21
2024-02-07T09:12:02.232Z,41.22
2024-02-07T09:13:08.355Z,41.22
2024-02-07T09:14:14.423Z,41.22
2024-02-07T09:15:20.537Z,41.24
2024-02-07T09:16:26.613Z,41.24
2024-02-07T09:18:38.877Z,41.22
2024-02-07T09:19:44.903Z,41.2
2024-02-07T09:20:50.913Z,41.22
2024-02-07T09:21:57.113Z,41.23
2024-02-07T09:23:03.235Z,41.24
2024-02-07T09:24:09.281Z,41.23
2024-02-07T09:25:15.668Z,41.22
2024-02-07T09:26:21.466Z,41.22
2024-02-07T09:27:27.552Z,41.2
2024-02-07T09:28:33.969Z,41.21
2024-02-07T09:29:39.775Z,41.22
2024-02-07T09:30:45.820Z,41.22
2024-02-07T09:31:52.017Z,41.23
2024-02-07T09:32:58.046Z,41.2
2024-02-07T09:34:04.485Z,41.2
2024-02-07T09:35:10.621Z,41.16
2024-02-07T09:36:16.307Z,41.18
2024-02-07T09:37:22.420Z,41.18
2024-02-07T09:38:28.517Z,41.2
2024-02-07T09:39:34.635Z,41.17
2024-02-07T09:40:40.920Z,41.16
2024-02-07T09:41:46.886Z,41.16
2024-02-07T09:42:52.879Z,41.16
2024-02-07T09:43:59.048Z,41.18
2024-02-07T09:45:05.446Z,41.19
2024-02-07T09:46:11.328Z,41.21
2024-02-07T09:47:17.263Z,41.23
2024-02-07T09:48:23.575Z,41.2
2024-02-07T09:49:29.626Z,41.19
2024-02-07T09:50:35.578Z,41.18
2024-02-07T09:51:41.634Z,41.18
2024-02-07T09:52:47.755Z,41.16
2024-02-07T09:53:53.903Z,41.15
2024-02-07T09:54:59.931Z,41.14
2024-02-07T09:56:06.033Z,41.16
2024-02-07T09:57:12.133Z,41.16
2024-02-07T09:58:18.268Z,41.18
2024-02-07T09:59:24.309Z,41.16
2024-02-07T10:00:30.559Z,41.14
2024-02-07T10:01:36.777Z,41.14
2024-02-07T10:02:42.521Z,41.13
2024-02-07T10:03:48.706Z,41.14
2024-02-07T10:04:54.798Z,41.15
2024-02-07T10:06:01.106Z,41.18
2024-02-07T10:07:06.886Z,41.16
2024-02-07T10:08:12.986Z,41.16
2024-02-07T10:09:19.142Z,41.12
2024-02-07T10:10:25.327Z,41.11
2024-02-07T10:11:31.379Z,41.11
2024-02-07T10:12:37.464Z,41.12
2024-02-07T10:13:43.559Z,41.15
2024-02-07T10:14:49.644Z,41.14
2024-02-07T10:15:55.721Z,41.13
2024-02-07T10:17:02.050Z,41.12
2024-02-07T10:18:07.976Z,41.13
2024-02-07T10:19:14.166Z,41.12
2024-02-07T10:20:20.234Z,41.14
2024-02-07T10:21:26.181Z,41.15
2024-02-07T10:22:32.333Z,41.18
2024-02-07T10:23:38.427Z,41.18
2024-02-07T10:24:44.603Z,41.14
2024-02-07T10:25:50.644Z,41.14
2024-02-07T10:26:56.701Z,41.13
2024-02-07T10:28:02.691Z,41.14
2024-02-07T10:29:09.005Z,41.15
2024-02-07T10:30:14.949Z,41.15
2024-02-07T10:31:21.044Z,41.19
2024-02-07T10:32:27.100Z,41.17
2024-02-07T10:33:40.723Z,41.14
2024-02-07T10:34:39.533Z,41.16
2024-02-07T10:35:45.488Z,41.16
2024-02-07T10:36:51.549Z,41.16
2024-02-07T10:37:57.721Z,41.19
2024-02-07T10:39:03.799Z,41.19
2024-02-07T10:40:09.796Z,41.16
2024-02-07T10:41:16.075Z,41.15
2024-02-07T10:42:21.980Z,41.16
2024-02-07T10:43:28.161Z,41.14
2024-02-07T10:44:34.168Z,41.14
2024-02-07T10:45:40.313Z,41.13
2024-02-07T10:46:46.431Z,41.15
2024-02-07T10:47:52.465Z,41.14
2024-02-07T10:48:58.650Z,41.14
2024-02-07T10:50:04.889Z,41.12
2024-02-07T10:51:10.821Z,41.12
2024-02-07T10:52:16.919Z,41.12
2024-02-07T10:53:22.949Z,41.12
2024-02-07T10:54:29.037Z,41.14
2024-02-07T10:55:35.141Z,41.13
2024-02-07T10:56:41.239Z,41.13
2024-02-07T10:57:47.314Z,41.12
2024-02-07T10:58:55.885Z,41.12
2024-02-07T10:59:59.578Z,41.12
2024-02-07T11:01:05.672Z,41.13
2024-02-07T11:02:11.737Z,41.18
2024-02-07T11:03:17.779Z,41.14
2024-02-07T11:04:25.196Z,41.16
2024-02-07T11:05:30.067Z,41.13
2024-02-07T11:06:36.178Z,41.12
2024-02-07T11:07:42.391Z,41.09
2024-02-07T11:08:48.385Z,41.1
2024-02-07T11:09:54.356Z,41.09
2024-02-07T11:11:00.552Z,41.14
2024-02-07T11:12:06.581Z,41.13
2024-02-07T11:13:12.698Z,41.11
2024-02-07T11:14:18.669Z,41.08
2024-02-07T11:15:24.906Z,41.08
2024-02-07T11:16:31.087Z,41.1
2024-02-07T11:17:37.042Z,41.12
2024-02-07T11:18:43.087Z,41.13
2024-02-07T11:19:49.258Z,41.13
2024-02-07T11:20:55.409Z,41.12
2024-02-07T11:22:01.441Z,41.11
2024-02-07T11:23:07.506Z,41.09
2024-02-07T11:24:13.612Z,41.1
2024-02-07T11:25:19.717Z,41.1
2024-02-07T11:26:25.813Z,41.13
2024-02-07T11:27:31.915Z,41.12
2024-02-07T11:28:38.021Z,41.1
2024-02-07T11:29:44.103Z,41.08
2024-02-07T11:30:50.158Z,41.05
2024-02-07T11:31:56.431Z,41.06
2024-02-07T11:33:02.415Z,41.05
2024-02-07T11:34:08.521Z,41.06
2024-02-07T11:35:14.687Z,41.06
2024-02-07T11:36:20.641Z,41.08
2024-02-07T11:37:26.774Z,41.06
2024-02-07T11:38:32.890Z,41.04
2024-02-07T11:39:38.911Z,41.02
2024-02-07T11:40:45.092Z,41.02
2024-02-07T11:41:51.123Z,41.03
2024-02-07T11:42:57.216Z,41.05
2024-02-07T11:44:03.391Z,41.06
2024-02-07T11:45:09.371Z,41.08
2024-02-07T11:46:15.643Z,41.09
2024-02-07T11:47:21.622Z,41.09
2024-02-07T11:48:27.757Z,41.09
2024-02-07T11:49:33.750Z,41.08
2024-02-07T11:50:39.880Z,41.07
2024-02-07T11:51:45.954Z,41.05
2024-02-07T11:52:52.089Z,41.04
2024-02-07T11:53:58.135Z,41.02
2024-02-07T11:55:04.231Z,41.02
2024-02-07T11:56:10.405Z,41.03
2024-02-07T11:57:16.429Z,41.01
2024-02-07T11:58:22.575Z,41.01
2024-02-07T11:59:28.562Z,41.01
2024-02-07T12:00:34.723Z,41.01
2024-02-07T12:01:40.867Z,41.01
2024-02-07T12:02:46.897Z,41.02
2024-02-07T12:03:53.008Z,41.04
2024-02-07T12:04:59.087Z,41.02
2024-02-07T12:06:05.703Z,41
2024-02-07T12:07:11.414Z,41
2024-02-07T12:08:17.570Z,41
2024-02-07T12:09:29.650Z,41.01
2024-02-07T12:10:35.808Z,41.02
2024-02-07T12:11:41.805Z,41.03
2024-02-07T12:12:47.910Z,41.04
2024-02-07T12:13:53.975Z,41.09
2024-02-07T12:15:00.159Z,41.01
2024-02-07T12:16:06.233Z,40.99
2024-02-07T12:17:12.338Z,41
2024-02-07T12:18:18.328Z,41
2024-02-07T12:19:24.555Z,41.02
2024-02-07T12:20:30.790Z,41.02
2024-02-07T12:21:36.719Z,41.02
2024-02-07T12:22:42.953Z,40.99
2024-02-07T12:23:48.802Z,40.97
2024-02-07T12:24:54.995Z,41
2024-02-07T12:26:01.157Z,41.01
2024-02-07T12:27:07.184Z,41.02
2024-02-07T12:28:13.255Z,41.01
2024-02-07T12:29:19.267Z,41
2024-02-07T12:30:25.479Z,40.99
2024-02-07T12:31:31.581Z,41
2024-02-07T12:32:39.836Z,41.02
2024-02-07T12:33:43.724Z,41.02
2024-02-07T12:34:49.893Z,41.04
2024-02-07T12:35:55.928Z,41.03
2024-02-07T12:37:02.008Z,41.02
2024-02-07T12:38:08.191Z,41.01
2024-02-07T12:39:14.195Z,41
2024-02-07T12:40:20.354Z,41.01
2024-02-07T12:41:26.421Z,41.01
2024-02-07T12:42:32.468Z,41.03
2024-02-07T12:43:38.667Z,41.03
2024-02-07T12:44:44.676Z,41.03
2024-02-07T12:45:50.765Z,41.02
2024-02-07T12:46:56.942Z,40.99
2024-02-07T12:48:03.062Z,40.99
2024-02-07T12:49:09.097Z,41
2024-02-07T12:50:15.182Z,41.01
2024-02-07T12:51:21.247Z,41.01
2024-02-07T12:52:27.402Z,41
2024-02-07T12:53:33.369Z,41
2024-02-07T12:54:39.558Z,41
2024-02-07T12:55:45.644Z,40.98
2024-02-07T12:56:51.754Z,40.98
2024-02-07T12:57:57.822Z,40.99
2024-02-07T12:59:04.014Z,40.99
2024-02-07T13:00:10.038Z,40.99
2024-02-07T13:01:16.210Z,40.98
2024-02-07T13:02:22.370Z,40.98
2024-02-07T13:03:28.299Z,40.98
2024-02-07T13:04:34.461Z,40.98
2024-02-07T13:05:40.510Z,40.97
2024-02-07T13:06:46.691Z,40.97
2024-02-07T13:07:52.693Z,40.95
2024-02-07T13:08:58.765Z,40.95
2024-02-07T13:10:04.882Z,40.94
2024-02-07T13:11:11.012Z,40.93
2024-02-07T13:12:24.230Z,40.95
2024-02-07T13:13:23.169Z,40.94
2024-02-07T13:14:29.245Z,40.94
2024-02-07T13:15:35.332Z,40.94
2024-02-07T13:16:41.535Z,40.86
2024-02-07T13:17:47.925Z,40.95
2024-02-07T13:18:53.711Z,40.95
2024-02-07T13:19:59.656Z,40.95
2024-02-07T13:21:05.817Z,40.97
2024-02-07T13:22:11.952Z,40.98
2024-02-07T13:23:18.014Z,40.99
2024-02-07T13:24:24.105Z,40.99
2024-02-07T13:25:30.136Z,40.97
2024-02-07T13:26:36.301Z,40.97
2024-02-07T13:27:42.422Z,40.96
2024-02-07T13:28:48.533Z,40.97
2024-02-07T13:29:54.583Z,40.98
2024-02-07T13:31:00.676Z,40.98
2024-02-07T13:32:06.875Z,40.99
2024-02-07T13:33:13.039Z,40.95
2024-02-07T13:34:19.032Z,40.92
2024-02-07T13:35:25.089Z,40.91
2024-02-07T13:36:31.126Z,40.92
2024-02-07T13:37:37.302Z,40.9
2024-02-07T13:38:43.344Z,40.9
2024-02-07T13:39:49.426Z,40.89
2024-02-07T13:40:55.477Z,40.89
2024-02-07T13:42:01.618Z,40.88
2024-02-07T13:43:07.714Z,40.88
2024-02-07T13:44:13.849Z,40.9
2024-02-07T13:45:19.838Z,40.9
2024-02-07T13:46:26.028Z,40.9
2024-02-07T13:47:32.116Z,40.93
2024-02-07T13:48:38.219Z,40.94
2024-02-07T13:49:44.387Z,40.94
2024-02-07T13:50:50.289Z,40.93
2024-02-07T13:51:56.525Z,40.91
2024-02-07T13:53:02.736Z,40.88
2024-02-07T13:54:08.663Z,40.88
2024-02-07T13:55:14.907Z,40.85
2024-02-07T13:56:20.897Z,40.85
2024-02-07T13:57:26.953Z,40.85
2024-02-07T13:58:33.071Z,40.85
2024-02-07T13:59:39.142Z,40.84
2024-02-07T14:00:45.268Z,40.83
2024-02-07T14:01:51.442Z,40.83
2024-02-07T14:02:57.470Z,40.85
2024-02-07T14:04:03.534Z,40.82
2024-02-07T14:05:09.651Z,40.81
2024-02-07T14:06:15.714Z,40.81
2024-02-07T14:07:21.876Z,40.81
2024-02-07T14:08:27.995Z,40.81
2024-02-07T14:09:34.030Z,40.82
2024-02-07T14:10:40.166Z,40.84
2024-02-07T14:11:46.186Z,40.84
2024-02-07T14:12:52.271Z,40.8
2024-02-07T14:13:58.530Z,40.79
2024-02-07T14:15:04.482Z,40.79
2024-02-07T14:16:12.805Z,40.79
2024-02-07T14:17:16.651Z,40.81
2024-02-07T14:18:22.813Z,40.8
2024-02-07T14:19:28.927Z,40.81
2024-02-07T14:20:34.924Z,40.76
2024-02-07T14:21:41.041Z,40.76